createdAt,value
2023-02-22T00:00:48.244Z,3.53
2023-02-22T00:03:16.520Z,3.50
2023-02-22T00:05:47.065Z,3.50
2023-02-22T00:08:16.530Z,3.13
2023-02-22T00:10:44.885Z,3.53
2023-02-22T00:13:14.123Z,3.37
2023-02-22T00:15:41.696Z,3.23
2023-02-22T00:18:12.152Z,3.77
2023-02-22T00:20:41.110Z,3.33
2023-02-22T00:23:14.168Z,3.37
2023-02-22T00:25:41.079Z,2.80
2023-02-22T00:28:08.352Z,3.27
2023-02-22T00:30:35.151Z,3.60
2023-02-22T00:33:02.428Z,3.40
2023-02-22T00:35:31.264Z,3.00
2023-02-22T00:38:01.133Z,3.90
2023-02-22T00:40:33.505Z,3.17
2023-02-22T00:43:02.590Z,2.90
2023-02-22T00:45:31.770Z,3.37
2023-02-22T00:47:59.320Z,2.83
2023-02-22T00:50:28.389Z,3.00
2023-02-22T00:52:57.039Z,3.33
2023-02-22T00:55:30.587Z,3.30
2023-02-22T00:57:58.504Z,3.30
2023-02-22T01:00:25.734Z,3.10
2023-02-22T01:02:53.658Z,3.07
2023-02-22T01:05:23.537Z,3.10
2023-02-22T01:07:54.381Z,3.37
2023-02-22T01:10:22.708Z,3.63
2023-02-22T01:12:50.162Z,3.13
2023-02-22T01:15:21.822Z,3.57
2023-02-22T01:17:50.430Z,3.27
2023-02-22T01:20:18.489Z,2.67
2023-02-22T01:22:47.748Z,2.80
2023-02-22T01:25:24.574Z,2.80
2023-02-22T01:27:52.355Z,2.47
2023-02-22T01:30:26.430Z,3.43
2023-02-22T01:32:54.248Z,2.90
2023-02-22T01:35:24.805Z,3.17
2023-02-22T01:37:51.613Z,5.03
2023-02-22T01:40:24.926Z,3.10
2023-02-22T01:42:54.140Z,2.80
2023-02-22T01:45:30.116Z,2.93
2023-02-22T01:48:29.730Z,2.50
2023-02-22T01:51:20.612Z,2.63
2023-02-22T01:53:58.862Z,2.97
2023-02-22T01:56:27.948Z,2.80
2023-02-22T01:59:01.322Z,2.77
2023-02-22T02:01:29.993Z,2.93
2023-02-22T02:04:00.014Z,2.93
2023-02-22T02:06:29.344Z,3.00
2023-02-22T02:09:18.030Z,2.93
2023-02-22T02:11:45.969Z,3.13
2023-02-22T02:14:14.033Z,3.20
2023-02-22T02:16:48.243Z,2.50
2023-02-22T02:20:02.058Z,2.23
2023-02-22T02:22:51.738Z,2.90
2023-02-22T02:25:39.193Z,2.77
2023-02-22T02:28:15.088Z,2.97
2023-02-22T02:31:16.128Z,3.03
2023-02-22T02:34:01.671Z,3.27
2023-02-22T02:36:59.174Z,2.87
2023-02-22T02:39:44.364Z,3.57
2023-02-22T02:42:16.932Z,3.17
2023-02-22T02:44:54.626Z,3.10
2023-02-22T02:47:26.574Z,3.23
2023-02-22T02:50:09.225Z,2.80
2023-02-22T02:52:39.668Z,3.23
2023-02-22T02:55:08.446Z,3.30
2023-02-22T02:57:35.173Z,3.17
2023-02-22T03:00:01.949Z,3.67
2023-02-22T03:02:47.303Z,2.93
2023-02-22T03:06:10.797Z,3.13
2023-02-22T03:08:58.710Z,2.93
2023-02-22T03:11:32.215Z,2.97
2023-02-22T03:14:27.031Z,2.80
2023-02-22T03:17:23.495Z,3.00
2023-02-22T03:19:52.884Z,3.00
2023-02-22T03:22:44.378Z,3.00
2023-02-22T03:25:20.471Z,2.80
2023-02-22T03:27:54.252Z,2.80
2023-02-22T03:30:35.974Z,2.90
2023-02-22T03:33:09.751Z,2.87
2023-02-22T03:35:48.239Z,3.20
2023-02-22T03:38:19.166Z,4.30
2023-02-22T03:40:52.318Z,3.00
2023-02-22T03:43:25.123Z,3.03
2023-02-22T03:45:56.002Z,3.27
2023-02-22T03:48:38.110Z,2.73
2023-02-22T03:51:06.829Z,3.20
2023-02-22T03:53:37.203Z,2.53
2023-02-22T03:56:10.634Z,3.03
2023-02-22T03:58:40.685Z,3.47
2023-02-22T04:01:07.615Z,3.00
2023-02-22T04:03:34.338Z,3.13
2023-02-22T04:06:02.225Z,2.73
2023-02-22T04:08:30.295Z,2.67
2023-02-22T04:10:57.280Z,3.07
2023-02-22T04:13:27.524Z,2.60
2023-02-22T04:15:54.614Z,2.73
2023-02-22T04:18:22.556Z,3.03
2023-02-22T04:20:50.811Z,2.70
2023-02-22T04:23:49.949Z,2.70
2023-02-22T04:26:17.716Z,2.37
2023-02-22T04:28:50.339Z,2.70
2023-02-22T04:31:19.196Z,2.40
2023-02-22T04:33:46.341Z,2.50
2023-02-22T04:36:16.387Z,3.43
2023-02-22T04:38:45.170Z,2.33
2023-02-22T04:41:12.469Z,2.70
2023-02-22T04:43:39.783Z,2.33
2023-02-22T04:46:21.472Z,2.33
2023-02-22T04:48:48.294Z,2.50
2023-02-22T04:51:16.836Z,2.60
2023-02-22T04:54:04.096Z,2.60
2023-02-22T04:56:33.175Z,3.07
2023-02-22T04:59:00.460Z,2.30
2023-02-22T05:01:31.925Z,2.50
2023-02-22T05:03:58.633Z,2.63
2023-02-22T05:06:26.277Z,2.33
2023-02-22T05:08:53.389Z,3.00
2023-02-22T05:11:20.122Z,2.80
2023-02-22T05:13:46.849Z,2.50
2023-02-22T05:16:13.863Z,2.63
2023-02-22T05:18:41.657Z,2.93
2023-02-22T05:21:08.388Z,2.93
2023-02-22T05:23:35.123Z,2.87
2023-02-22T05:26:02.000Z,2.67
2023-02-22T05:28:28.795Z,2.93
2023-02-22T05:30:55.543Z,2.80
2023-02-22T05:33:22.611Z,2.60
2023-02-22T05:35:50.178Z,2.23
2023-02-22T05:38:17.037Z,2.93
2023-02-22T05:40:44.117Z,2.60
2023-02-22T05:43:11.413Z,2.43
2023-02-22T05:45:38.202Z,2.57
2023-02-22T05:48:05.131Z,2.60
2023-02-22T05:50:33.272Z,2.67
2023-02-22T05:53:00.884Z,3.00
2023-02-22T05:55:27.822Z,2.70
2023-02-22T05:57:54.800Z,2.53
2023-02-22T06:00:25.415Z,2.60
2023-02-22T06:02:59.981Z,2.33
2023-02-22T06:05:27.956Z,2.37
2023-02-22T06:07:55.828Z,2.63
2023-02-22T06:10:23.788Z,2.43
2023-02-22T06:12:51.467Z,2.70
2023-02-22T06:15:19.893Z,2.30
2023-02-22T06:17:50.073Z,2.70
2023-02-22T06:20:19.738Z,2.83
2023-02-22T06:22:51.157Z,2.30
2023-02-22T06:25:20.142Z,2.57
2023-02-22T06:27:47.413Z,2.43
2023-02-22T06:30:16.258Z,2.63
2023-02-22T06:32:43.057Z,2.20
2023-02-22T06:35:09.970Z,2.90
2023-02-22T06:37:37.061Z,2.70
2023-02-22T06:40:05.805Z,2.67
2023-02-22T06:42:32.805Z,2.47
2023-02-22T06:44:59.668Z,2.70
2023-02-22T06:47:27.002Z,2.23
2023-02-22T06:49:57.834Z,2.23
2023-02-22T06:52:24.697Z,2.60
2023-02-22T06:54:52.204Z,2.37
2023-02-22T06:57:19.157Z,2.47
2023-02-22T06:59:46.524Z,2.30
2023-02-22T07:02:14.466Z,2.30
2023-02-22T07:04:43.451Z,2.50
2023-02-22T07:07:10.866Z,2.40
2023-02-22T07:09:37.728Z,2.53
2023-02-22T07:12:04.700Z,2.30
2023-02-22T07:14:31.869Z,2.63
2023-02-22T07:16:58.652Z,3.00
2023-02-22T07:19:25.438Z,2.70
2023-02-22T07:21:59.336Z,2.57
2023-02-22T07:24:30.326Z,2.63
2023-02-22T07:26:57.813Z,2.73
2023-02-22T07:29:24.552Z,2.40
2023-02-22T07:31:51.402Z,2.40
2023-02-22T07:34:18.455Z,2.80
2023-02-22T07:36:45.346Z,2.47
2023-02-22T07:39:13.018Z,2.00
2023-02-22T07:41:39.893Z,2.40
2023-02-22T07:44:19.621Z,2.43
2023-02-22T07:46:50.452Z,2.47
2023-02-22T07:49:18.682Z,2.30
2023-02-22T07:51:45.493Z,1.90
2023-02-22T07:54:12.931Z,2.27
2023-02-22T07:56:45.721Z,2.07
2023-02-22T07:59:13.632Z,2.27
2023-02-22T08:01:40.492Z,2.00
2023-02-22T08:04:07.564Z,2.40
2023-02-22T08:06:35.070Z,2.20
2023-02-22T08:09:02.204Z,2.50
2023-02-22T08:11:29.016Z,2.10
2023-02-22T08:13:55.797Z,2.40
2023-02-22T08:16:22.489Z,2.60
2023-02-22T08:18:50.247Z,2.43
2023-02-22T08:21:17.828Z,2.60
2023-02-22T08:23:45.586Z,3.07
2023-02-22T08:26:20.813Z,3.03
2023-02-22T08:28:48.942Z,2.77
2023-02-22T08:31:16.046Z,1.80
2023-02-22T08:33:43.991Z,2.57
2023-02-22T08:36:10.803Z,2.00
2023-02-22T08:38:37.845Z,1.93
2023-02-22T08:41:05.360Z,1.90
2023-02-22T08:43:32.557Z,1.53
2023-02-22T08:45:59.858Z,1.40
2023-02-22T08:48:26.672Z,1.40
2023-02-22T08:50:53.814Z,1.40
2023-02-22T08:53:20.592Z,1.20
2023-02-22T08:55:47.708Z,1.30
2023-02-22T08:58:14.627Z,1.43
2023-02-22T09:00:44.640Z,1.30
2023-02-22T09:03:14.394Z,1.67
2023-02-22T09:05:42.827Z,1.00
2023-02-22T09:08:10.431Z,1.00
2023-02-22T09:10:37.539Z,1.23
2023-02-22T09:13:04.854Z,1.17
2023-02-22T09:15:34.454Z,1.42
2023-02-22T09:18:01.641Z,1.05
2023-02-22T09:20:28.918Z,1.00
2023-02-22T09:22:55.894Z,0.90
2023-02-22T09:25:23.689Z,1.00
2023-02-22T09:27:53.321Z,0.93
2023-02-22T09:30:34.621Z,1.13
2023-02-22T09:33:06.272Z,1.02
2023-02-22T09:35:36.232Z,1.00
2023-02-22T09:38:08.753Z,1.23
2023-02-22T09:40:45.297Z,0.85
2023-02-22T09:43:31.292Z,0.68
2023-02-22T09:46:04.591Z,1.00
2023-02-22T09:48:40.120Z,0.80
2023-02-22T09:51:16.639Z,0.73
2023-02-22T09:53:48.429Z,0.88
2023-02-22T09:56:19.290Z,0.93
2023-02-22T09:58:55.366Z,0.73
2023-02-22T10:01:32.802Z,0.80
2023-02-22T10:04:19.892Z,0.90
2023-02-22T10:06:56.001Z,0.70
2023-02-22T10:09:28.174Z,1.30
2023-02-22T10:12:00.825Z,1.55
2023-02-22T10:15:07.757Z,0.70
2023-02-22T10:17:45.297Z,0.70
2023-02-22T10:20:31.518Z,0.90
2023-02-22T10:23:33.610Z,0.85
2023-02-22T10:26:22.059Z,1.00
2023-02-22T10:29:03.778Z,0.70
2023-02-22T10:31:36.314Z,0.80
2023-02-22T10:34:10.977Z,0.70
2023-02-22T10:36:39.276Z,1.00
2023-02-22T10:39:32.552Z,0.70
2023-02-22T10:42:06.818Z,0.82
2023-02-22T10:44:38.215Z,0.70
2023-02-22T10:47:17.692Z,0.90
2023-02-22T10:49:50.295Z,1.25
2023-02-22T10:52:29.695Z,0.90
2023-02-22T10:55:13.761Z,0.90
2023-02-22T10:57:42.412Z,0.65
2023-02-22T11:00:29.633Z,1.00
2023-02-22T11:02:59.781Z,0.80
2023-02-22T11:05:39.242Z,0.80
2023-02-22T11:08:21.881Z,0.90
2023-02-22T11:10:54.837Z,0.80
2023-02-22T11:13:26.914Z,0.60
2023-02-22T11:16:17.437Z,0.80
2023-02-22T11:18:45.216Z,0.63
2023-02-22T11:21:14.055Z,0.65
2023-02-22T11:23:45.047Z,0.68
2023-02-22T11:26:16.904Z,0.70
2023-02-22T11:28:49.597Z,0.52
2023-02-22T11:31:22.578Z,0.80
2023-02-22T11:33:53.313Z,0.77
2023-02-22T11:36:33.769Z,0.82
2023-02-22T11:39:01.079Z,0.68
2023-02-22T11:41:31.139Z,0.90
2023-02-22T11:44:15.400Z,0.85
2023-02-22T11:46:43.023Z,1.10
2023-02-22T11:49:13.597Z,1.40
2023-02-22T11:51:52.952Z,1.20
2023-02-22T11:54:31.500Z,2.10
2023-02-22T11:57:02.169Z,1.75
2023-02-22T11:59:55.866Z,2.65
2023-02-22T12:02:56.412Z,1.70
2023-02-22T12:05:37.253Z,1.40
2023-02-22T12:08:36.087Z,1.40
2023-02-22T12:11:18.402Z,1.38
2023-02-22T12:14:07.751Z,1.48
2023-02-22T12:16:54.921Z,1.42
2023-02-22T12:19:43.317Z,1.50
2023-02-22T12:22:19.196Z,1.30
2023-02-22T12:24:57.960Z,1.20
2023-02-22T12:27:38.890Z,1.17
2023-02-22T12:30:32.217Z,0.77
2023-02-22T12:33:05.329Z,0.90
2023-02-22T12:35:43.276Z,1.10
2023-02-22T12:38:24.742Z,1.17
2023-02-22T12:41:14.067Z,1.10
2023-02-22T12:44:04.258Z,1.20
2023-02-22T12:46:37.595Z,1.17
2023-02-22T12:49:10.413Z,1.67
2023-02-22T12:52:20.611Z,1.48
2023-02-22T12:54:57.979Z,1.10
2023-02-22T12:57:44.720Z,1.10
2023-02-22T13:00:28.786Z,1.23
2023-02-22T13:03:04.559Z,0.70
2023-02-22T13:05:39.176Z,1.00
2023-02-22T13:08:26.716Z,0.90
2023-02-22T13:11:25.910Z,0.80
2023-02-22T13:14:32.464Z,0.55
2023-02-22T13:17:11.097Z,0.70
2023-02-22T13:19:41.012Z,0.98
2023-02-22T13:22:30.228Z,0.75
2023-02-22T13:25:20.644Z,1.17
2023-02-22T13:27:53.252Z,1.00
2023-02-22T13:30:35.699Z,1.15
2023-02-22T13:33:11.810Z,1.20
2023-02-22T13:35:48.677Z,1.30
2023-02-22T13:38:27.711Z,1.20
2023-02-22T13:41:12.701Z,1.17
2023-02-22T13:43:57.233Z,0.90
2023-02-22T13:46:48.175Z,1.20
2023-02-22T13:49:25.648Z,1.10
2023-02-22T13:51:58.979Z,1.30
2023-02-22T13:54:29.889Z,1.38
2023-02-22T13:56:57.939Z,0.90
2023-02-22T13:59:28.880Z,1.27
2023-02-22T14:01:56.702Z,1.27
2023-02-22T14:04:29.718Z,2.05
2023-02-22T14:07:02.057Z,0.93
2023-02-22T14:09:48.662Z,1.10
2023-02-22T14:12:30.694Z,1.30
2023-02-22T14:15:28.134Z,1.20
2023-02-22T14:18:01.865Z,1.10
2023-02-22T14:20:32.726Z,1.52
2023-02-22T14:23:32.015Z,1.40
2023-02-22T14:26:16.944Z,1.33
2023-02-22T14:29:01.066Z,1.08
2023-02-22T14:31:46.959Z,1.20
2023-02-22T14:34:16.024Z,0.93
2023-02-22T14:36:55.697Z,1.40
2023-02-22T14:39:38.826Z,1.58
2023-02-22T14:42:13.087Z,1.50
2023-02-22T14:44:49.131Z,1.73
2023-02-22T14:47:29.465Z,1.98
2023-02-22T14:50:16.695Z,1.63
2023-02-22T14:52:48.736Z,1.70
2023-02-22T14:55:26.002Z,1.83
2023-02-22T14:58:18.688Z,1.80
2023-02-22T15:00:53.397Z,1.55
2023-02-22T15:03:29.156Z,1.70
2023-02-22T15:05:59.719Z,2.05
2023-02-22T15:08:28.598Z,1.75
2023-02-22T15:10:55.407Z,1.52
2023-02-22T15:13:28.377Z,1.58
2023-02-22T15:16:00.601Z,1.75
2023-02-22T15:18:30.157Z,1.77
2023-02-22T15:21:03.856Z,1.90
2023-02-22T15:23:42.487Z,2.05
2023-02-22T15:26:37.391Z,1.58
2023-02-22T15:29:36.202Z,2.08
2023-02-22T15:32:18.752Z,1.92
2023-02-22T15:34:45.757Z,2.90
2023-02-22T15:37:25.101Z,2.15
2023-02-22T15:39:59.520Z,1.60
2023-02-22T15:42:30.467Z,2.17
2023-02-22T15:44:58.145Z,1.33
2023-02-22T15:47:31.974Z,1.95
2023-02-22T15:50:18.829Z,1.85
2023-02-22T15:53:02.019Z,1.60
2023-02-22T15:55:33.055Z,1.70
2023-02-22T15:58:08.771Z,1.27
2023-02-22T16:00:40.159Z,1.02
2023-02-22T16:03:11.101Z,1.25
2023-02-22T16:05:51.781Z,1.15
2023-02-22T16:08:26.052Z,1.52
2023-02-22T16:11:00.680Z,1.63
2023-02-22T16:13:32.359Z,1.07
2023-02-22T16:16:06.813Z,1.13
2023-02-22T16:18:36.986Z,1.20
2023-02-22T16:21:11.714Z,1.17
2023-02-22T16:23:49.289Z,1.53
2023-02-22T16:26:34.386Z,1.53
2023-02-22T16:29:08.170Z,1.10
2023-02-22T16:31:39.623Z,1.30
2023-02-22T16:34:09.365Z,1.20
2023-02-22T16:36:39.531Z,1.50
2023-02-22T16:39:11.594Z,1.30
2023-02-22T16:41:38.340Z,1.70
2023-02-22T16:44:08.011Z,1.20
2023-02-22T16:46:35.492Z,1.50
2023-02-22T16:49:03.745Z,1.10
2023-02-22T16:51:40.600Z,1.63
2023-02-22T16:54:14.156Z,1.43
2023-02-22T16:56:41.778Z,1.13
2023-02-22T16:59:14.070Z,1.37
2023-02-22T17:01:41.937Z,1.70
2023-02-22T17:04:35.075Z,3.23
2023-02-22T17:07:05.132Z,1.20
2023-02-22T17:09:33.148Z,1.40
2023-02-22T17:12:00.554Z,2.00
2023-02-22T17:14:31.839Z,1.50
2023-02-22T17:16:59.417Z,1.10
2023-02-22T17:19:26.800Z,1.50
2023-02-22T17:21:54.401Z,1.83
2023-02-22T17:24:25.054Z,2.07
2023-02-22T17:26:53.480Z,1.60
2023-02-22T17:29:20.757Z,2.00
2023-02-22T17:31:49.079Z,1.80
2023-02-22T17:34:16.246Z,1.20
2023-02-22T17:36:43.672Z,1.33
2023-02-22T17:39:11.579Z,1.00
2023-02-22T17:41:40.668Z,1.10
2023-02-22T17:44:08.625Z,1.60
2023-02-22T17:46:36.736Z,1.17
2023-02-22T17:49:03.928Z,1.17
2023-02-22T17:51:30.915Z,1.13
2023-02-22T17:53:57.700Z,1.10
2023-02-22T17:56:25.018Z,1.00
2023-02-22T17:58:55.483Z,9.57
2023-02-22T18:01:27.230Z,2.50
2023-02-22T18:03:56.734Z,1.03
2023-02-22T18:06:28.536Z,1.27
2023-02-22T18:08:57.631Z,1.20
2023-02-22T18:11:26.680Z,2.40
2023-02-22T18:13:56.446Z,1.83
2023-02-22T18:16:26.590Z,1.30
2023-02-22T18:18:55.693Z,1.30
2023-02-22T18:21:24.317Z,1.30
2023-02-22T18:23:51.093Z,1.30
2023-02-22T18:26:20.881Z,1.23
2023-02-22T18:28:51.291Z,1.80
2023-02-22T18:31:20.695Z,1.10
2023-02-22T18:33:50.919Z,1.73
2023-02-22T18:36:23.165Z,1.80
2023-02-22T18:38:52.504Z,1.77
2023-02-22T18:41:25.915Z,1.80
2023-02-22T18:43:55.835Z,2.00
2023-02-22T18:46:24.699Z,1.70
2023-02-22T18:48:55.875Z,1.37
2023-02-22T18:51:23.694Z,2.17
2023-02-22T18:53:54.882Z,1.87
2023-02-22T18:56:24.577Z,1.83
2023-02-22T18:58:54.749Z,1.53
2023-02-22T19:01:23.622Z,1.93
2023-02-22T19:03:51.915Z,1.80
2023-02-22T19:06:22.707Z,2.00
2023-02-22T19:08:51.161Z,2.37
2023-02-22T19:11:21.943Z,2.03
2023-02-22T19:13:52.170Z,2.27
2023-02-22T19:16:21.725Z,2.50
2023-02-22T19:18:52.350Z,2.60
2023-02-22T19:21:20.942Z,4.43
2023-02-22T19:23:49.140Z,4.23
2023-02-22T19:26:20.042Z,3.87
2023-02-22T19:28:48.227Z,2.83
2023-02-22T19:31:33.818Z,2.90
2023-02-22T19:34:04.129Z,2.70
2023-02-22T19:36:31.807Z,2.80
2023-02-22T19:39:01.877Z,3.07
2023-02-22T19:41:30.181Z,2.97
2023-02-22T19:43:58.316Z,3.10
2023-02-22T19:46:26.478Z,2.83
2023-02-22T19:48:55.518Z,2.83
2023-02-22T19:51:26.778Z,2.87
2023-02-22T19:53:57.648Z,3.10
2023-02-22T19:56:29.212Z,3.03
2023-02-22T19:59:01.552Z,2.93
2023-02-22T20:01:33.043Z,2.70
2023-02-22T20:04:03.663Z,2.87
2023-02-22T20:06:42.811Z,3.00
2023-02-22T20:09:12.919Z,3.00
2023-02-22T20:11:40.613Z,3.03
2023-02-22T20:14:07.384Z,2.80
2023-02-22T20:16:35.192Z,3.40
2023-02-22T20:19:02.258Z,3.50
2023-02-22T20:21:31.943Z,3.63
2023-02-22T20:24:04.936Z,3.50
2023-02-22T20:26:36.467Z,3.93
2023-02-22T20:29:05.280Z,3.90
2023-02-22T20:31:32.917Z,5.40
2023-02-22T20:34:01.296Z,4.00
2023-02-22T20:36:30.082Z,3.47
2023-02-22T20:38:59.894Z,3.30
2023-02-22T20:41:29.539Z,4.43
2023-02-22T20:43:57.259Z,3.83
2023-02-22T20:46:26.102Z,4.03
2023-02-22T20:48:58.852Z,3.30
2023-02-22T20:51:27.059Z,3.63
2023-02-22T20:53:54.766Z,3.67
2023-02-22T20:56:23.837Z,3.77
2023-02-22T20:58:50.886Z,3.50
2023-02-22T21:01:20.336Z,3.87
2023-02-22T21:03:48.419Z,4.40
2023-02-22T21:06:18.012Z,3.40
2023-02-22T21:08:49.344Z,3.23
2023-02-22T21:11:18.362Z,3.70
2023-02-22T21:13:46.239Z,3.53
2023-02-22T21:16:19.858Z,4.60
2023-02-22T21:18:46.612Z,6.20
2023-02-22T21:21:14.255Z,4.00
2023-02-22T21:23:41.356Z,3.60
2023-02-22T21:26:14.649Z,4.17
2023-02-22T21:28:50.905Z,3.77
2023-02-22T21:31:21.935Z,4.40
2023-02-22T21:33:53.137Z,4.70
2023-02-22T21:36:25.779Z,5.20
2023-02-22T21:38:59.035Z,4.77
2023-02-22T21:41:29.360Z,5.03
2023-02-22T21:43:58.001Z,5.40
2023-02-22T21:46:28.584Z,5.10
2023-02-22T21:48:59.209Z,7.23
2023-02-22T21:51:32.063Z,5.47
2023-02-22T21:54:05.079Z,6.37
2023-02-22T21:56:38.428Z,6.27
2023-02-22T21:59:11.896Z,6.00
2023-02-22T22:01:47.133Z,5.90
2023-02-22T22:04:20.022Z,5.50
2023-02-22T22:06:49.444Z,5.53
2023-02-22T22:09:19.903Z,5.23
2023-02-22T22:11:58.342Z,5.40
2023-02-22T22:14:27.129Z,5.20
2023-02-22T22:16:59.611Z,6.30
2023-02-22T22:19:29.331Z,6.07
2023-02-22T22:21:59.293Z,7.00
2023-02-22T22:24:29.696Z,6.93
2023-02-22T22:26:56.938Z,6.27
2023-02-22T22:29:28.452Z,6.40
2023-02-22T22:31:56.204Z,5.93
2023-02-22T22:34:24.440Z,6.43
2023-02-22T22:36:51.557Z,5.50
2023-02-22T22:39:21.124Z,5.50
2023-02-22T22:41:48.650Z,5.77
2023-02-22T22:44:22.585Z,5.33
2023-02-22T22:46:53.695Z,5.10
2023-02-22T22:49:23.512Z,5.70
2023-02-22T22:51:51.175Z,5.77
2023-02-22T22:54:18.329Z,5.50
2023-02-22T22:56:45.252Z,5.10
2023-02-22T22:59:13.673Z,4.90
2023-02-22T23:01:44.942Z,4.90
2023-02-22T23:04:16.361Z,4.67
2023-02-22T23:06:50.030Z,5.00
2023-02-22T23:09:22.912Z,4.90
2023-02-22T23:11:55.431Z,5.37
2023-02-22T23:14:31.307Z,4.30
2023-02-22T23:17:03.455Z,4.37
2023-02-22T23:19:32.830Z,5.13
2023-02-22T23:22:01.383Z,4.20
2023-02-22T23:24:28.841Z,5.23
2023-02-22T23:27:02.092Z,4.60
2023-02-22T23:29:30.009Z,5.10
2023-02-22T23:31:59.189Z,4.53
2023-02-22T23:34:26.683Z,4.40
2023-02-22T23:36:56.194Z,5.10
2023-02-22T23:39:24.554Z,5.07
2023-02-22T23:41:56.775Z,4.40
2023-02-22T23:44:23.502Z,5.17
2023-02-22T23:46:55.741Z,4.43
2023-02-22T23:49:27.360Z,4.27
2023-02-22T23:51:54.768Z,4.03
2023-02-22T23:54:24.581Z,4.90
2023-02-22T23:56:57.966Z,4.67
2023-02-22T23:59:27.086Z,4.87
